sensor_id;sensor_type;location;lat;lon;timestamp;pressure;altitude;pressure_sealevel;temperature;humidity
48874;BME280;66155;46.204;5.220;2023-04-04T00:02:57;98803.16;;;4.98;55.48
48874;BME280;66155;46.204;5.220;2023-04-04T00:07:57;98800.34;;;5.06;55.41
48874;BME280;66155;46.204;5.220;2023-04-04T00:12:58;98800.38;;;4.93;55.45
48874;BME280;66155;46.204;5.220;2023-04-04T00:17:58;98806.13;;;4.95;55.32
48874;BME280;66155;46.204;5.220;2023-04-04T00:22:58;98801.59;;;4.90;55.54
48874;BME280;66155;46.204;5.220;2023-04-04T00:27:59;98793.25;;;4.88;55.50
48874;BME280;66155;46.204;5.220;2023-04-04T00:33:00;98790.28;;;4.85;55.54
48874;BME280;66155;46.204;5.220;2023-04-04T00:38:01;98785.56;;;4.82;55.32
48874;BME280;66155;46.204;5.220;2023-04-04T00:43:01;98782.00;;;4.76;55.56
48874;BME280;66155;46.204;5.220;2023-04-04T00:48:02;98787.38;;;4.74;55.36
48874;BME280;66155;46.204;5.220;2023-04-04T00:53:02;98777.84;;;4.75;55.47
48874;BME280;66155;46.204;5.220;2023-04-04T00:58:03;98781.06;;;4.64;55.36
48874;BME280;66155;46.204;5.220;2023-04-04T01:03:03;98778.13;;;4.60;55.49
48874;BME280;66155;46.204;5.220;2023-04-04T01:08:06;98763.81;;;4.57;55.72
48874;BME280;66155;46.204;5.220;2023-04-04T01:13:07;98771.56;;;4.51;55.71
48874;BME280;66155;46.204;5.220;2023-04-04T01:18:08;98765.63;;;4.50;55.53
48874;BME280;66155;46.204;5.220;2023-04-04T01:23:09;98763.47;;;4.47;55.71
48874;BME280;66155;46.204;5.220;2023-04-04T01:28:10;98763.53;;;4.34;56.26
48874;BME280;66155;46.204;5.220;2023-04-04T01:38:20;98763.94;;;4.24;56.06
48874;BME280;66155;46.204;5.220;2023-04-04T01:43:22;98761.78;;;4.08;56.40
48874;BME280;66155;46.204;5.220;2023-04-04T01:48:22;98761.19;;;4.12;56.31
48874;BME280;66155;46.204;5.220;2023-04-04T01:53:23;98765.16;;;4.15;56.65
48874;BME280;66155;46.204;5.220;2023-04-04T01:58:23;98768.56;;;4.09;56.78
48874;BME280;66155;46.204;5.220;2023-04-04T02:03:23;98773.09;;;4.07;56.82
48874;BME280;66155;46.204;5.220;2023-04-04T02:08:24;98763.22;;;3.90;56.92
48874;BME280;66155;46.204;5.220;2023-04-04T02:13:25;98762.38;;;4.03;56.62
48874;BME280;66155;46.204;5.220;2023-04-04T02:18:26;98761.59;;;4.03;56.41
48874;BME280;66155;46.204;5.220;2023-04-04T02:23:26;98754.25;;;4.06;56.71
48874;BME280;66155;46.204;5.220;2023-04-04T02:28:27;98760.03;;;3.95;56.59
48874;BME280;66155;46.204;5.220;2023-04-04T02:33:27;98762.22;;;3.91;56.66
48874;BME280;66155;46.204;5.220;2023-04-04T02:38:28;98752.50;;;3.87;57.14
48874;BME280;66155;46.204;5.220;2023-04-04T02:43:28;98756.09;;;3.72;57.09
48874;BME280;66155;46.204;5.220;2023-04-04T02:48:28;98759.28;;;3.61;57.69
48874;BME280;66155;46.204;5.220;2023-04-04T02:53:29;98762.06;;;3.46;57.69
48874;BME280;66155;46.204;5.220;2023-04-04T02:58:30;98762.06;;;3.46;58.23
48874;BME280;66155;46.204;5.220;2023-04-04T03:03:30;98768.00;;;3.47;58.23
48874;BME280;66155;46.204;5.220;2023-04-04T03:08:31;98760.09;;;3.41;57.89
48874;BME280;66155;46.204;5.220;2023-04-04T03:13:31;98759.69;;;3.38;58.13
48874;BME280;66155;46.204;5.220;2023-04-04T03:18:32;98754.53;;;3.31;58.53
48874;BME280;66155;46.204;5.220;2023-04-04T03:23:33;98759.84;;;3.23;58.87
48874;BME280;66155;46.204;5.220;2023-04-04T03:28:34;98760.06;;;3.21;58.69
48874;BME280;66155;46.204;5.220;2023-04-04T03:33:34;98746.19;;;3.16;58.98
48874;BME280;66155;46.204;5.220;2023-04-04T03:38:36;98749.38;;;3.11;58.68
48874;BME280;66155;46.204;5.220;2023-04-04T03:43:36;98747.75;;;3.03;59.46
48874;BME280;66155;46.204;5.220;2023-04-04T03:48:36;98745.56;;;3.07;58.65
48874;BME280;66155;46.204;5.220;2023-04-04T03:53:37;98745.19;;;3.10;58.87
48874;BME280;66155;46.204;5.220;2023-04-04T03:58:37;98756.25;;;2.97;59.23
48874;BME280;66155;46.204;5.220;2023-04-04T04:03:37;98768.34;;;2.97;58.84
48874;BME280;66155;46.204;5.220;2023-04-04T04:08:38;98767.31;;;2.91;59.49
48874;BME280;66155;46.204;5.220;2023-04-04T04:13:38;98767.53;;;2.83;59.96
48874;BME280;66155;46.204;5.220;2023-04-04T04:18:39;98771.50;;;2.92;59.18
48874;BME280;66155;46.204;5.220;2023-04-04T04:23:39;98765.91;;;2.75;59.94
48874;BME280;66155;46.204;5.220;2023-04-04T04:28:40;98780.09;;;2.58;60.58
48874;BME280;66155;46.204;5.220;2023-04-04T04:33:40;98780.50;;;2.61;60.17
48874;BME280;66155;46.204;5.220;2023-04-04T04:38:40;98782.63;;;2.51;60.33
48874;BME280;66155;46.204;5.220;2023-04-04T04:43:41;98780.63;;;2.46;60.32
48874;BME280;66155;46.204;5.220;2023-04-04T04:48:41;98794.06;;;2.42;60.33
48874;BME280;66155;46.204;5.220;2023-04-04T04:53:41;98796.44;;;2.37;60.43
48874;BME280;66155;46.204;5.220;2023-04-04T04:58:42;98801.53;;;2.30;60.73
48874;BME280;66155;46.204;5.220;2023-04-04T05:03:44;98799.75;;;2.31;60.08
48874;BME280;66155;46.204;5.220;2023-04-04T05:08:44;98806.25;;;2.26;60.33
48874;BME280;66155;46.204;5.220;2023-04-04T05:13:44;98808.00;;;2.19;60.30
48874;BME280;66155;46.204;5.220;2023-04-04T05:18:45;98808.00;;;2.19;60.26
48874;BME280;66155;46.204;5.220;2023-04-04T05:23:46;98808.00;;;2.19;60.57
48874;BME280;66155;46.204;5.220;2023-04-04T05:28:47;98813.50;;;2.16;59.99
48874;BME280;66155;46.204;5.220;2023-04-04T05:33:47;98818.88;;;2.21;59.94
48874;BME280;66155;46.204;5.220;2023-04-04T05:38:48;98818.88;;;2.21;60.00
48874;BME280;66155;46.204;5.220;2023-04-04T05:43:48;98813.31;;;2.18;59.83
48874;BME280;66155;46.204;5.220;2023-04-04T05:48:49;98817.09;;;2.22;60.26
48874;BME280;66155;46.204;5.220;2023-04-04T05:53:49;98818.69;;;2.23;60.17
48874;BME280;66155;46.204;5.220;2023-04-04T05:58:50;98824.25;;;2.26;59.99
48874;BME280;66155;46.204;5.220;2023-04-04T06:03:50;98835.72;;;2.31;59.56
48874;BME280;66155;46.204;5.220;2023-04-04T06:08:50;98835.13;;;2.28;59.74
48874;BME280;66155;46.204;5.220;2023-04-04T06:13:51;98838.13;;;2.32;59.84
48874;BME280;66155;46.204;5.220;2023-04-04T06:18:52;98841.69;;;2.31;59.65
48874;BME280;66155;46.204;5.220;2023-04-04T06:23:52;98846.84;;;2.38;59.49
48874;BME280;66155;46.204;5.220;2023-04-04T06:28:53;98847.09;;;2.43;59.40
48874;BME280;66155;46.204;5.220;2023-04-04T06:33:54;98855.41;;;2.45;59.51
48874;BME280;66155;46.204;5.220;2023-04-04T06:38:55;98860.41;;;2.53;59.58
48874;BME280;66155;46.204;5.220;2023-04-04T06:43:56;98873.13;;;2.68;59.26
48874;BME280;66155;46.204;5.220;2023-04-04T06:48:57;98857.75;;;2.81;58.41
48874;BME280;66155;46.204;5.220;2023-04-04T06:53:57;98858.19;;;2.85;58.29
48874;BME280;66155;46.204;5.220;2023-04-04T06:58:59;98865.94;;;2.92;58.79
48874;BME280;66155;46.204;5.220;2023-04-04T07:03:59;98852.03;;;2.79;58.39
48874;BME280;66155;46.204;5.220;2023-04-04T07:08:59;98853.22;;;2.83;58.55
48874;BME280;66155;46.204;5.220;2023-04-04T07:14:00;98855.22;;;2.88;57.50
48874;BME280;66155;46.204;5.220;2023-04-04T07:19:00;98846.69;;;2.88;57.63
48874;BME280;66155;46.204;5.220;2023-04-04T07:24:01;98852.91;;;3.07;56.88
48874;BME280;66155;46.204;5.220;2023-04-04T07:29:01;98861.09;;;3.23;57.01
48874;BME280;66155;46.204;5.220;2023-04-04T07:34:02;98858.72;;;3.29;57.11
48874;BME280;66155;46.204;5.220;2023-04-04T07:39:03;98860.72;;;3.40;56.37
48874;BME280;66155;46.204;5.220;2023-04-04T07:44:04;98860.72;;;3.40;55.90
48874;BME280;66155;46.204;5.220;2023-04-04T07:49:04;98864.50;;;3.51;56.11
48874;BME280;66155;46.204;5.220;2023-04-04T07:54:05;98865.13;;;3.66;56.02
48874;BME280;66155;46.204;5.220;2023-04-04T07:59:05;98868.69;;;3.72;54.86
48874;BME280;66155;46.204;5.220;2023-04-04T08:04:05;98865.94;;;3.93;55.43
48874;BME280;66155;46.204;5.220;2023-04-04T08:09:06;98875.03;;;4.03;54.63
48874;BME280;66155;46.204;5.220;2023-04-04T08:14:06;98865.91;;;4.20;53.70
48874;BME280;66155;46.204;5.220;2023-04-04T08:19:10;98874.63;;;4.26;53.32
48874;BME280;66155;46.204;5.220;2023-04-04T08:24:11;98861.69;;;4.46;52.79
48874;BME280;66155;46.204;5.220;2023-04-04T08:29:12;98854.13;;;4.51;52.45
48874;BME280;66155;46.204;5.220;2023-04-04T08:34:12;98862.25;;;4.68;52.26
48874;BME280;66155;46.204;5.220;2023-04-04T08:39:12;98864.19;;;4.79;51.45
48874;BME280;66155;46.204;5.220;2023-04-04T08:44:15;98869.72;;;4.89;51.79
48874;BME280;66155;46.204;5.220;2023-04-04T08:49:17;98851.63;;;4.96;51.21
48874;BME280;66155;46.204;5.220;2023-04-04T08:54:20;98859.47;;;5.14;50.99
48874;BME280;66155;46.204;5.220;2023-04-04T08:59:21;98860.59;;;5.25;50.74
48874;BME280;66155;46.204;5.220;2023-04-04T09:04:21;98866.09;;;5.42;50.04
48874;BME280;66155;46.204;5.220;2023-04-04T09:09:21;98869.06;;;5.39;49.75
48874;BME280;66155;46.204;5.220;2023-04-04T09:14:22;98864.59;;;5.60;49.51
48874;BME280;66155;46.204;5.220;2023-04-04T09:19:25;98870.72;;;5.65;48.50
48874;BME280;66155;46.204;5.220;2023-04-04T09:24:36;98869.06;;;5.71;47.99
48874;BME280;66155;46.204;5.220;2023-04-04T09:29:37;98867.66;;;5.75;48.63
48874;BME280;66155;46.204;5.220;2023-04-04T09:34:38;98866.28;;;6.04;48.64
48874;BME280;66155;46.204;5.220;2023-04-04T09:39:38;98874.72;;;6.18;48.15
48874;BME280;66155;46.204;5.220;2023-04-04T09:44:39;98866.28;;;6.23;47.86
48874;BME280;66155;46.204;5.220;2023-04-04T09:49:40;98872.00;;;6.32;47.10
48874;BME280;66155;46.204;5.220;2023-04-04T09:54:40;98880.06;;;6.60;47.15
48874;BME280;66155;46.204;5.220;2023-04-04T09:59:40;98875.34;;;6.57;46.17
48874;BME280;66155;46.204;5.220;2023-04-04T10:04:42;98871.94;;;6.75;45.77
48874;BME280;66155;46.204;5.220;2023-04-04T10:09:45;98877.53;;;6.91;45.96
48874;BME280;66155;46.204;5.220;2023-04-04T10:14:45;98885.22;;;6.97;44.92
48874;BME280;66155;46.204;5.220;2023-04-04T10:19:46;98878.53;;;7.08;45.41
48874;BME280;66155;46.204;5.220;2023-04-04T10:24:47;98881.47;;;7.12;44.02
48874;BME280;66155;46.204;5.220;2023-04-04T10:29:47;98875.84;;;7.15;43.59
48874;BME280;66155;46.204;5.220;2023-04-04T10:34:56;98884.03;;;7.30;42.91
48874;BME280;66155;46.204;5.220;2023-04-04T10:45:00;98880.84;;;7.58;42.27
48874;BME280;66155;46.204;5.220;2023-04-04T10:50:02;98880.06;;;7.58;43.23
48874;BME280;66155;46.204;5.220;2023-04-04T10:55:04;98866.69;;;7.73;42.60
48874;BME280;66155;46.204;5.220;2023-04-04T11:05:11;98867.72;;;7.95;41.31
48874;BME280;66155;46.204;5.220;2023-04-04T11:10:12;98858.38;;;7.94;40.91
48874;BME280;66155;46.204;5.220;2023-04-04T11:15:13;98866.94;;;7.95;40.70
48874;BME280;66155;46.204;5.220;2023-04-04T11:20:15;98877.88;;;8.09;40.55
48874;BME280;66155;46.204;5.220;2023-04-04T11:30:36;98867.84;;;8.00;41.95
48874;BME280;66155;46.204;5.220;2023-04-04T11:41:14;98873.72;;;7.96;42.24
48874;BME280;66155;46.204;5.220;2023-04-04T11:46:15;98865.34;;;8.06;41.55
48874;BME280;66155;46.204;5.220;2023-04-04T11:51:17;98859.19;;;8.42;41.91
48874;BME280;66155;46.204;5.220;2023-04-04T11:56:18;98859.50;;;8.34;41.33
48874;BME280;66155;46.204;5.220;2023-04-04T12:01:19;98862.09;;;8.34;41.37
48874;BME280;66155;46.204;5.220;2023-04-04T12:06:20;98847.31;;;8.46;41.65
48874;BME280;66155;46.204;5.220;2023-04-04T12:11:20;98845.22;;;8.72;40.99
48874;BME280;66155;46.204;5.220;2023-04-04T12:16:23;98844.50;;;8.88;40.15
48874;BME280;66155;46.204;5.220;2023-04-04T12:21:24;98852.44;;;8.82;40.30
48874;BME280;66155;46.204;5.220;2023-04-04T12:26:25;98831.13;;;8.97;39.68
48874;BME280;66155;46.204;5.220;2023-04-04T12:31:28;98839.50;;;9.27;39.82
48874;BME280;66155;46.204;5.220;2023-04-04T12:36:30;98826.97;;;9.24;38.83
48874;BME280;66155;46.204;5.220;2023-04-04T12:41:31;98817.69;;;9.45;39.35
48874;BME280;66155;46.204;5.220;2023-04-04T12:46:36;98812.97;;;9.76;39.34
48874;BME280;66155;46.204;5.220;2023-04-04T12:51:38;98835.13;;;10.18;38.06
48874;BME280;66155;46.204;5.220;2023-04-04T12:56:39;98823.94;;;10.34;38.07
48874;BME280;66155;46.204;5.220;2023-04-04T13:01:39;98805.19;;;10.32;37.56
48874;BME280;66155;46.204;5.220;2023-04-04T13:06:39;98801.81;;;10.37;37.46
48874;BME280;66155;46.204;5.220;2023-04-04T13:11:56;98796.72;;;10.69;36.41
48874;BME280;66155;46.204;5.220;2023-04-04T13:17:01;98799.25;;;10.59;34.68
48874;BME280;66155;46.204;5.220;2023-04-04T13:22:06;98795.00;;;10.80;35.70
48874;BME280;66155;46.204;5.220;2023-04-04T13:27:07;98794.88;;;10.92;35.79
48874;BME280;66155;46.204;5.220;2023-04-04T13:32:07;98791.75;;;10.90;34.67
48874;BME280;66155;46.204;5.220;2023-04-04T13:37:07;98799.25;;;10.86;34.68
48874;BME280;66155;46.204;5.220;2023-04-04T13:42:08;98786.31;;;11.23;34.48
48874;BME280;66155;46.204;5.220;2023-04-04T13:47:08;98774.97;;;11.40;34.17
48874;BME280;66155;46.204;5.220;2023-04-04T13:52:09;98766.94;;;11.47;33.06
48874;BME280;66155;46.204;5.220;2023-04-04T13:57:09;98775.53;;;11.85;32.64
48874;BME280;66155;46.204;5.220;2023-04-04T14:02:10;98763.97;;;12.18;32.77
48874;BME280;66155;46.204;5.220;2023-04-04T14:07:10;98750.59;;;12.98;31.88
48874;BME280;66155;46.204;5.220;2023-04-04T14:12:10;98747.22;;;13.64;30.89
48874;BME280;66155;46.204;5.220;2023-04-04T14:17:11;98743.56;;;14.41;29.67
48874;BME280;66155;46.204;5.220;2023-04-04T14:22:11;98742.88;;;14.75;29.06
48874;BME280;66155;46.204;5.220;2023-04-04T14:27:11;98735.38;;;14.97;27.75
48874;BME280;66155;46.204;5.220;2023-04-04T14:32:12;98724.69;;;14.39;27.42
48874;BME280;66155;46.204;5.220;2023-04-04T14:37:12;98740.63;;;13.87;28.17
48874;BME280;66155;46.204;5.220;2023-04-04T14:42:12;98729.94;;;13.63;28.05
48874;BME280;66155;46.204;5.220;2023-04-04T14:47:13;98740.44;;;13.43;28.18
48874;BME280;66155;46.204;5.220;2023-04-04T14:52:13;98731.00;;;13.11;28.74
48874;BME280;66155;46.204;5.220;2023-04-04T14:57:14;98725.00;;;13.26;29.41
48874;BME280;66155;46.204;5.220;2023-04-04T15:02:15;98738.31;;;13.09;28.42
48874;BME280;66155;46.204;5.220;2023-04-04T15:07:15;98721.84;;;12.83;28.07
48874;BME280;66155;46.204;5.220;2023-04-04T15:12:16;98735.44;;;12.85;29.05
48874;BME280;66155;46.204;5.220;2023-04-04T15:17:16;98747.19;;;12.82;28.74
48874;BME280;66155;46.204;5.220;2023-04-04T15:22:17;98733.31;;;12.77;28.08
48874;BME280;66155;46.204;5.220;2023-04-04T15:27:17;98736.47;;;12.79;28.70
48874;BME280;66155;46.204;5.220;2023-04-04T15:32:17;98729.44;;;12.79;28.33
48874;BME280;66155;46.204;5.220;2023-04-04T15:37:18;98748.00;;;12.83;28.03
48874;BME280;66155;46.204;5.220;2023-04-04T15:42:18;98730.47;;;12.93;28.45
48874;BME280;66155;46.204;5.220;2023-04-04T15:47:18;98748.50;;;13.00;28.31
48874;BME280;66155;46.204;5.220;2023-04-04T15:52:19;98747.50;;;13.22;28.45
48874;BME280;66155;46.204;5.220;2023-04-04T15:57:19;98728.09;;;13.59;27.21
48874;BME280;66155;46.204;5.220;2023-04-04T16:02:19;98723.75;;;15.09;26.26
48874;BME280;66155;46.204;5.220;2023-04-04T16:07:20;98737.34;;;16.23;24.79
48874;BME280;66155;46.204;5.220;2023-04-04T16:12:20;98737.66;;;16.40;24.28
48874;BME280;66155;46.204;5.220;2023-04-04T16:17:21;98740.91;;;16.32;24.36
48874;BME280;66155;46.204;5.220;2023-04-04T16:22:21;98740.13;;;16.69;24.15
48874;BME280;66155;46.204;5.220;2023-04-04T16:27:22;98732.44;;;16.73;23.69
48874;BME280;66155;46.204;5.220;2023-04-04T16:32:22;98736.78;;;17.02;24.05
48874;BME280;66155;46.204;5.220;2023-04-04T16:37:23;98738.06;;;17.37;23.89
48874;BME280;66155;46.204;5.220;2023-04-04T16:42:23;98743.56;;;16.70;23.75
48874;BME280;66155;46.204;5.220;2023-04-04T16:47:23;98746.41;;;16.54;24.25
48874;BME280;66155;46.204;5.220;2023-04-04T16:52:24;98745.22;;;16.23;24.42
48874;BME280;66155;46.204;5.220;2023-04-04T16:57:25;98747.78;;;17.23;24.31
48874;BME280;66155;46.204;5.220;2023-04-04T17:02:26;98752.75;;;17.85;23.13
48874;BME280;66155;46.204;5.220;2023-04-04T17:07:26;98755.34;;;17.10;23.27
48874;BME280;66155;46.204;5.220;2023-04-04T17:12:26;98757.13;;;16.58;24.06
48874;BME280;66155;46.204;5.220;2023-04-04T17:17:27;98757.09;;;15.96;24.51
48874;BME280;66155;46.204;5.220;2023-04-04T17:22:27;98772.09;;;15.95;24.78
48874;BME280;66155;46.204;5.220;2023-04-04T17:27:27;98769.03;;;15.88;24.86
48874;BME280;66155;46.204;5.220;2023-04-04T17:32:28;98770.00;;;15.34;25.42
48874;BME280;66155;46.204;5.220;2023-04-04T17:37:29;98774.00;;;14.87;25.38
48874;BME280;66155;46.204;5.220;2023-04-04T17:42:30;98776.56;;;14.47;25.65
48874;BME280;66155;46.204;5.220;2023-04-04T17:47:30;98782.81;;;13.50;26.44
48874;BME280;66155;46.204;5.220;2023-04-04T17:52:31;98778.41;;;13.40;26.52
48874;BME280;66155;46.204;5.220;2023-04-04T17:57:32;98787.00;;;13.25;26.46
48874;BME280;66155;46.204;5.220;2023-04-04T18:02:32;98791.06;;;12.65;27.38
48874;BME280;66155;46.204;5.220;2023-04-04T18:07:32;98789.38;;;12.28;27.72
48874;BME280;66155;46.204;5.220;2023-04-04T18:12:33;98794.00;;;11.73;27.99
48874;BME280;66155;46.204;5.220;2023-04-04T18:17:33;98794.63;;;11.20;28.83
48874;BME280;66155;46.204;5.220;2023-04-04T18:22:33;98801.97;;;10.96;29.62
48874;BME280;66155;46.204;5.220;2023-04-04T18:27:34;98804.78;;;10.90;29.71
48874;BME280;66155;46.204;5.220;2023-04-04T18:32:34;98814.13;;;10.63;30.38
48874;BME280;66155;46.204;5.220;2023-04-04T18:37:36;98825.53;;;10.57;30.79
48874;BME280;66155;46.204;5.220;2023-04-04T18:42:36;98832.44;;;10.30;31.23
48874;BME280;66155;46.204;5.220;2023-04-04T18:47:37;98835.03;;;10.30;31.86
48874;BME280;66155;46.204;5.220;2023-04-04T18:52:38;98830.00;;;10.23;32.08
48874;BME280;66155;46.204;5.220;2023-04-04T18:57:39;98849.75;;;10.02;31.94
48874;BME280;66155;46.204;5.220;2023-04-04T19:02:39;98850.03;;;10.00;31.88
48874;BME280;66155;46.204;5.220;2023-04-04T19:07:40;98860.34;;;9.95;32.22
48874;BME280;66155;46.204;5.220;2023-04-04T19:12:41;98866.66;;;9.99;32.25
48874;BME280;66155;46.204;5.220;2023-04-04T19:17:41;98880.53;;;9.88;32.46
48874;BME280;66155;46.204;5.220;2023-04-04T19:22:42;98889.84;;;9.67;33.54
48874;BME280;66155;46.204;5.220;2023-04-04T19:27:42;98894.50;;;9.65;33.34
48874;BME280;66155;46.204;5.220;2023-04-04T19:32:42;98901.38;;;9.42;34.58
48874;BME280;66155;46.204;5.220;2023-04-04T19:37:43;98907.56;;;9.24;35.66
48874;BME280;66155;46.204;5.220;2023-04-04T19:42:43;98903.22;;;9.01;36.52
48874;BME280;66155;46.204;5.220;2023-04-04T19:47:43;98899.16;;;8.93;37.24
48874;BME280;66155;46.204;5.220;2023-04-04T19:52:45;98911.19;;;8.71;39.31
48874;BME280;66155;46.204;5.220;2023-04-04T19:57:45;98921.59;;;8.59;40.00
48874;BME280;66155;46.204;5.220;2023-04-04T20:02:46;98919.69;;;8.43;40.21
48874;BME280;66155;46.204;5.220;2023-04-04T20:07:47;98931.72;;;8.37;41.49
48874;BME280;66155;46.204;5.220;2023-04-04T20:12:48;98929.44;;;8.17;43.31
48874;BME280;66155;46.204;5.220;2023-04-04T20:17:50;98941.38;;;8.06;43.48
48874;BME280;66155;46.204;5.220;2023-04-04T20:22:51;98940.13;;;7.97;44.18
48874;BME280;66155;46.204;5.220;2023-04-04T20:27:51;98932.22;;;7.92;44.84
48874;BME280;66155;46.204;5.220;2023-04-04T20:32:52;98935.03;;;7.90;44.45
48874;BME280;66155;46.204;5.220;2023-04-04T20:37:52;98947.53;;;7.81;45.27
48874;BME280;66155;46.204;5.220;2023-04-04T20:42:53;98946.88;;;7.86;44.46
48874;BME280;66155;46.204;5.220;2023-04-04T20:47:53;98958.94;;;7.80;44.47
48874;BME280;66155;46.204;5.220;2023-04-04T20:52:55;98957.91;;;7.70;45.68
48874;BME280;66155;46.204;5.220;2023-04-04T20:57:58;98961.13;;;7.65;45.63
48874;BME280;66155;46.204;5.220;2023-04-04T21:03:01;98965.06;;;7.56;46.30
48874;BME280;66155;46.204;5.220;2023-04-04T21:18:21;98961.19;;;7.47;45.76
48874;BME280;66155;46.204;5.220;2023-04-04T21:28:29;98958.19;;;7.31;46.13
48874;BME280;66155;46.204;5.220;2023-04-04T21:33:30;98960.69;;;7.19;46.72
48874;BME280;66155;46.204;5.220;2023-04-04T21:38:32;98964.66;;;7.22;46.68
48874;BME280;66155;46.204;5.220;2023-04-04T21:43:32;98964.38;;;7.12;47.43
48874;BME280;66155;46.204;5.220;2023-04-04T21:48:33;98963.97;;;7.15;46.41
48874;BME280;66155;46.204;5.220;2023-04-04T21:53:33;98965.06;;;7.07;46.95
48874;BME280;66155;46.204;5.220;2023-04-04T21:58:34;98964.38;;;7.12;46.77
48874;BME280;66155;46.204;5.220;2023-04-04T22:03:37;98962.47;;;7.07;46.89
48874;BME280;66155;46.204;5.220;2023-04-04T22:08:39;98972.59;;;6.90;47.60
48874;BME280;66155;46.204;5.220;2023-04-04T22:13:39;98967.97;;;6.74;48.37
48874;BME280;66155;46.204;5.220;2023-04-04T22:18:45;98962.44;;;6.70;47.88
48874;BME280;66155;46.204;5.220;2023-04-04T22:23:46;98974.13;;;6.54;48.63
48874;BME280;66155;46.204;5.220;2023-04-04T22:28:47;98968.69;;;6.37;49.09
48874;BME280;66155;46.204;5.220;2023-04-04T22:33:47;98980.63;;;6.13;49.83
48874;BME280;66155;46.204;5.220;2023-04-04T22:38:47;98971.94;;;6.01;50.49
48874;BME280;66155;46.204;5.220;2023-04-04T22:43:55;98972.53;;;6.03;50.05
48874;BME280;66155;46.204;5.220;2023-04-04T22:48:56;98963.81;;;5.97;49.81
48874;BME280;66155;46.204;5.220;2023-04-04T22:54:03;98968.41;;;5.88;50.12
48874;BME280;66155;46.204;5.220;2023-04-04T22:59:04;98966.47;;;5.77;51.03
48874;BME280;66155;46.204;5.220;2023-04-04T23:04:04;98974.88;;;5.72;50.66
48874;BME280;66155;46.204;5.220;2023-04-04T23:09:05;98970.69;;;5.71;50.97
48874;BME280;66155;46.204;5.220;2023-04-04T23:14:06;98978.84;;;5.68;50.74
48874;BME280;66155;46.204;5.220;2023-04-04T23:19:07;98977.19;;;5.49;51.77
48874;BME280;66155;46.204;5.220;2023-04-04T23:24:08;98964.47;;;5.41;51.77
48874;BME280;66155;46.204;5.220;2023-04-04T23:29:08;98971.16;;;5.55;51.29
48874;BME280;66155;46.204;5.220;2023-04-04T23:34:08;98974.78;;;5.47;51.42
48874;BME280;66155;46.204;5.220;2023-04-04T23:39:09;98969.44;;;5.42;51.92
48874;BME280;66155;46.204;5.220;2023-04-04T23:44:09;98967.66;;;5.43;51.68
48874;BME280;66155;46.204;5.220;2023-04-04T23:49:10;98964.56;;;5.21;52.43
48874;BME280;66155;46.204;5.220;2023-04-04T23:54:11;98968.69;;;5.35;51.87
48874;BME280;66155;46.204;5.220;2023-04-04T23:59:11;98970.25;;;5.36;51.73
